Villa Universitaria, Puerto Rico
Current Conditions -  °F | °C
As of 4:56 AM on Friday 24 Oct 2014 (Local Time) from TJSJ Reporting Station
Few Clouds Few Clouds  
Wind Chill: 27°   Ceiling: Unl
Heat Index: 30°   Visibility: 10mi
Dew Point: 24°   Wind: 0mph
Humidity: 87%   Direction: NA
Pressure: 29.91"   Gusts: NA
Location:  17.9849°N, 66.1175°W
Report Text: TJSJ 240856Z 00000KT 10SM FEW031 27/24 A2991 RMK AO2 SLP126 T02670244 55003
Loading
Personal Weather Stations






























Interactive Weather Map
Tropical Storm Tracking
New forecast layout! Learn more

10-Day Weather Forecast

Advertisements
Track Severe Weather on mobile